Time;durP1;ratioP1;P1;durP2;ratioP2;P2;SDS_P1;SDS_P2;PMS_P1;PMS_P2;Temp;Humidity;BMP_temperature;BMP_pressure;BME280_temperature;BME280_humidity;BME280_pressure;Samples;Min_cycle;Max_cycle;Signal;HPM_P1;HPM_P2
2021/03/12 00:00:39;;;;;;;2.40;0.80;;;-10.40;42.60;;;;;;4388920;32;20525;-34
2021/03/12 00:03:14;;;;;;;0.57;0.43;;;-10.40;42.60;;;;;;4389090;32;20330;-33
2021/03/12 00:05:49;;;;;;;2.00;0.80;;;-10.50;42.50;;;;;;4388434;32;20081;-34
2021/03/12 00:08:16;;;;;;;5.90;1.33;;;-10.50;42.70;;;;;;4402118;32;20084;-36
2021/03/12 00:10:44;;;;;;;2.00;0.83;;;-10.50;42.70;;;;;;4369557;32;20069;-35
2021/03/12 00:13:11;;;;;;;2.43;1.10;;;-10.50;43.40;;;;;;4370137;32;20540;-33
2021/03/12 00:15:40;;;;;;;1.07;0.90;;;-10.50;42.70;;;;;;4358291;32;20523;-33
2021/03/12 00:18:07;;;;;;;1.70;0.40;;;-10.50;42.70;;;;;;4370109;32;20070;-34
2021/03/12 00:20:37;;;;;;;2.60;1.20;;;-10.50;42.80;;;;;;4370424;32;20183;-36
2021/03/12 00:23:04;;;;;;;3.90;0.90;;;-10.50;43.40;;;;;;4360577;32;20085;-34
2021/03/12 00:25:41;;;;;;;3.77;1.13;;;-10.50;42.70;;;;;;4360100;32;20570;-35
2021/03/12 00:28:09;;;;;;;3.37;1.30;;;-10.50;42.70;;;;;;4357616;32;20046;-35
2021/03/12 00:30:36;;;;;;;2.83;1.00;;;-10.40;42.80;;;;;;4345443;32;20215;-34
2021/03/12 00:33:03;;;;;;;4.03;1.33;;;-10.40;42.80;;;;;;4345333;32;20171;-34
2021/03/12 00:35:34;;;;;;;2.13;1.07;;;-10.40;42.80;;;;;;4345215;32;20065;-42
2021/03/12 00:38:01;;;;;;;3.70;0.60;;;-10.30;42.80;;;;;;4345080;32;20066;-39
2021/03/12 00:40:31;;;;;;;3.03;1.13;;;-10.30;42.70;;;;;;4345539;32;20110;-33
2021/03/12 00:42:58;;;;;;;2.40;0.80;;;-10.20;42.60;;;;;;4327952;33;20172;-34
2021/03/12 00:45:26;;;;;;;6.13;1.17;;;-10.20;42.50;;;;;;4315928;33;20142;-33
2021/03/12 00:47:52;;;;;;;2.43;1.17;;;-10.10;42.40;;;;;;4333249;33;20519;-33
2021/03/12 00:50:30;;;;;;;4.70;0.97;;;-10.10;42.30;;;;;;4342725;33;20097;-33
2021/03/12 00:52:56;;;;;;;2.03;0.60;;;-10.10;42.30;;;;;;4330781;33;20134;-33
2021/03/12 00:55:23;;;;;;;3.33;1.30;;;-10.10;42.30;;;;;;4342926;33;20455;-34
2021/03/12 00:57:50;;;;;;;2.40;0.80;;;-10.10;42.30;;;;;;4342768;33;20781;-34
2021/03/12 01:00:27;;;;;;;10.57;0.87;;;-10.10;42.40;;;;;;4332733;32;20501;-33
2021/03/12 01:02:54;;;;;;;3.17;1.23;;;-10.00;42.50;;;;;;4357501;32;20067;-32
2021/03/12 01:05:21;;;;;;;2.20;0.80;;;-10.10;42.50;;;;;;4332889;32;20495;-34
2021/03/12 01:07:47;;;;;;;2.83;0.97;;;-10.00;42.60;;;;;;4369611;32;20069;-32
2021/03/12 01:10:15;;;;;;;4.70;1.07;;;-10.00;42.50;;;;;;4344888;32;20167;-32
2021/03/12 01:12:42;;;;;;;1.80;1.03;;;-10.00;42.60;;;;;;4300830;33;20079;-32
2021/03/12 01:15:12;;;;;;;1.63;0.50;;;-10.00;42.60;;;;;;4312905;33;20098;-32
2021/03/12 01:17:38;;;;;;;1.67;0.80;;;-10.00;42.70;;;;;;4313203;33;20071;-33
2021/03/12 01:20:08;;;;;;;6.93;1.83;;;-10.00;42.80;;;;;;4325850;32;20078;-33
2021/03/12 01:22:35;;;;;;;3.23;1.30;;;-9.90;42.80;;;;;;4344853;32;20090;-34
2021/03/12 01:25:06;;;;;;;4.17;2.50;;;-9.90;42.80;;;;;;4344916;32;20177;-33
2021/03/12 01:27:38;;;;;;;4.13;1.47;;;-9.90;42.90;;;;;;4345031;32;20093;-33
2021/03/12 01:30:14;;;;;;;3.07;0.90;;;-9.80;43.00;;;;;;4356651;32;20073;-34
2021/03/12 01:32:41;;;;;;;5.10;1.83;;;-9.80;43.00;;;;;;4356645;32;20071;-36
2021/03/12 01:35:08;;;;;;;6.17;2.70;;;-9.80;43.10;;;;;;4315225;33;20074;-37
2021/03/12 01:37:35;;;;;;;3.93;2.30;;;-9.80;43.20;;;;;;4291126;33;20074;-33
2021/03/12 01:40:04;;;;;;;3.67;1.40;;;-9.80;43.10;;;;;;4315230;33;20086;-34
2021/03/12 01:42:30;;;;;;;6.93;1.70;;;-9.80;43.10;;;;;;4327504;32;20620;-33
2021/03/12 01:44:57;;;;;;;2.80;1.27;;;-9.80;43.10;;;;;;4344457;32;20063;-33
2021/03/12 01:47:24;;;;;;;5.50;1.97;;;-9.80;43.10;;;;;;4344400;32;20678;-34
2021/03/12 01:49:50;;;;;;;1.93;1.57;;;-9.80;43.10;;;;;;4344457;32;20078;-33
2021/03/12 01:52:17;;;;;;;4.93;1.53;;;-9.80;43.20;;;;;;4344298;32;20164;-34
2021/03/12 01:54:43;;;;;;;5.97;2.40;;;-9.80;43.20;;;;;;4344127;32;20082;-34
2021/03/12 01:57:10;;;;;;;2.80;1.53;;;-9.80;43.30;;;;;;4331488;32;20100;-33
2021/03/12 01:59:36;;;;;;;3.13;1.43;;;-9.80;43.40;;;;;;4344137;32;20062;-33
2021/03/12 02:02:03;;;;;;;2.33;1.30;;;-9.80;43.40;;;;;;4344102;32;20533;-33
2021/03/12 02:04:30;;;;;;;6.20;1.57;;;-9.80;43.30;;;;;;4356760;32;20063;-33
2021/03/12 02:06:56;;;;;;;4.03;0.90;;;-9.80;43.30;;;;;;4344575;32;20082;-36
2021/03/12 02:09:23;;;;;;;3.80;1.33;;;-9.70;43.20;;;;;;4356762;32;20424;-36
2021/03/12 02:12:30;;;;;;;6.33;0.87;;;-9.70;43.20;;;;;;4344705;32;20551;-33
2021/03/12 02:15:19;;;;;;;5.53;1.93;;;-9.80;43.10;;;;;;4357897;32;20086;-33
2021/03/12 02:18:17;;;;;;;4.30;1.30;;;-9.70;43.20;;;;;;4357413;32;20066;-41
2021/03/12 02:20:59;;;;;;;2.67;1.47;;;-9.70;43.20;;;;;;4346764;32;20101;-36
2021/03/12 02:23:50;;;;;;;2.00;0.80;;;-9.70;43.10;;;;;;4358699;32;20094;-34
2021/03/12 02:26:41;;;;;;;1.60;0.87;;;-9.70;43.00;;;;;;4359135;32;20073;-34
2021/03/12 02:29:19;;;;;;;2.00;0.70;;;-9.70;42.80;;;;;;4369774;32;20085;-40
2021/03/12 02:31:46;;;;;;;6.53;1.07;;;-9.60;42.70;;;;;;4370545;32;20157;-35
2021/03/12 02:34:13;;;;;;;3.33;1.17;;;-9.60;42.60;;;;;;4359795;32;20074;-37
2021/03/12 02:36:48;;;;;;;1.90;1.03;;;-9.50;42.60;;;;;;4359829;32;20569;-33
2021/03/12 02:39:18;;;;;;;4.67;1.37;;;-9.50;42.50;;;;;;4372571;32;20530;-33
2021/03/12 02:41:47;;;;;;;4.03;0.80;;;-9.50;42.30;;;;;;4359577;32;20101;-33
2021/03/12 02:44:14;;;;;;;3.70;1.23;;;-9.50;42.20;;;;;;4371506;32;20085;-34
2021/03/12 02:46:40;;;;;;;10.33;2.33;;;-9.50;42.20;;;;;;4359548;32;20066;-32
2021/03/12 02:49:07;;;;;;;1.93;1.00;;;-9.50;42.10;;;;;;4359766;32;20062;-33
2021/03/12 02:51:34;;;;;;;1.53;0.93;;;-9.50;42.00;;;;;;4335210;32;20082;-34
2021/03/12 02:54:01;;;;;;;2.50;1.17;;;-9.50;42.10;;;;;;4359528;32;20518;-37
2021/03/12 02:56:27;;;;;;;4.20;1.47;;;-9.60;42.10;;;;;;4371971;32;20159;-34
2021/03/12 02:58:54;;;;;;;1.97;1.00;;;-9.60;42.20;;;;;;4359401;32;20054;-33
2021/03/12 03:01:20;;;;;;;2.73;1.00;;;-9.70;42.30;;;;;;4359070;32;20054;-33
2021/03/12 03:03:49;;;;;;;1.67;0.80;;;-9.60;42.50;;;;;;4347580;32;20455;-33
2021/03/12 03:06:16;;;;;;;14.43;2.27;;;-9.60;42.50;;;;;;4346711;32;20733;-33
2021/03/12 03:08:44;;;;;;;5.07;1.33;;;-9.70;42.40;;;;;;4362003;32;20466;-33
2021/03/12 03:11:11;;;;;;;6.20;1.40;;;-9.70;42.50;;;;;;4386419;32;20057;-38
2021/03/12 03:13:40;;;;;;;2.57;1.30;;;-9.60;42.60;;;;;;4374914;32;20486;-37
2021/03/12 03:16:09;;;;;;;30.53;9.93;;;-9.70;42.60;;;;;;4385662;32;20066;-41
2021/03/12 03:18:38;;;;;;;27.07;6.57;;;-9.70;42.80;;;;;;4361420;32;20065;-37
2021/03/12 03:21:05;;;;;;;10.13;2.33;;;-9.70;42.80;;;;;;4372627;32;20097;-34
2021/03/12 03:23:38;;;;;;;5.50;2.63;;;-9.70;42.90;;;;;;4315689;33;20142;-35
2021/03/12 03:26:05;;;;;;;6.00;2.13;;;-9.60;42.80;;;;;;4328632;33;20083;-36
2021/03/12 03:28:32;;;;;;;8.90;1.43;;;-9.60;42.80;;;;;;4340158;33;20491;-37
2021/03/12 03:31:03;;;;;;;6.87;2.57;;;-9.50;42.80;;;;;;4328112;33;20074;-34
2021/03/12 03:33:30;;;;;;;2.80;1.57;;;-9.50;42.80;;;;;;4340581;33;20649;-33
2021/03/12 03:35:56;;;;;;;4.97;1.93;;;-9.40;42.80;;;;;;4340938;33;20067;-33
2021/03/12 03:38:23;;;;;;;10.40;3.03;;;-9.40;42.90;;;;;;4328319;33;20070;-35
2021/03/12 03:40:50;;;;;;;5.17;2.40;;;-9.30;43.10;;;;;;4328355;33;20062;-36
2021/03/12 03:43:26;;;;;;;3.77;1.60;;;-9.30;43.20;;;;;;4310684;33;20084;-36
2021/03/12 03:45:55;;;;;;;7.53;2.33;;;-9.20;43.40;;;;;;4311148;33;20083;-36
2021/03/12 03:48:22;;;;;;;9.50;2.33;;;-9.10;43.60;;;;;;4313727;33;20221;-36
2021/03/12 03:50:49;;;;;;;8.87;2.70;;;-8.90;44.00;;;;;;4313770;33;20079;-36
2021/03/12 03:53:15;;;;;;;9.23;2.00;;;-8.80;44.40;;;;;;4272000;33;20091;-36
2021/03/12 03:55:42;;;;;;;2.30;1.33;;;-8.60;44.70;;;;;;4328148;33;20113;-42
2021/03/12 03:58:08;;;;;;;5.13;2.27;;;-8.40;44.90;;;;;;4319349;33;20059;-36
2021/03/12 04:00:35;;;;;;;5.43;1.70;;;-8.10;45.10;;;;;;4318977;33;20097;-35
2021/03/12 04:03:02;;;;;;;5.90;1.60;;;-7.90;45.30;;;;;;4330836;33;20580;-34
2021/03/12 04:05:28;;;;;;;4.40;1.47;;;-7.60;45.50;;;;;;4306774;33;20164;-34
2021/03/12 04:07:55;;;;;;;3.57;0.83;;;-7.30;45.50;;;;;;4316668;33;20067;-35
2021/03/12 04:10:22;;;;;;;5.40;1.20;;;-7.00;45.40;;;;;;4303603;33;20075;-35
2021/03/12 04:12:48;;;;;;;4.23;1.13;;;-6.70;45.40;;;;;;4289642;33;20116;-34
2021/03/12 04:15:16;;;;;;;3.30;1.33;;;-6.40;45.30;;;;;;4301819;33;20145;-35
2021/03/12 04:17:42;;;;;;;3.17;1.30;;;-6.10;45.20;;;;;;4289995;33;20163;-36
2021/03/12 04:20:09;;;;;;;4.33;1.00;;;-5.80;45.00;;;;;;4286081;33;20545;-36
2021/03/12 04:22:37;;;;;;;8.17;1.30;;;-5.60;44.60;;;;;;4314154;33;20106;-36
2021/03/12 04:25:05;;;;;;;11.93;1.23;;;-5.40;44.20;;;;;;4314036;33;20634;-38
2021/03/12 04:27:33;;;;;;;3.77;1.20;;;-5.10;43.90;;;;;;4301424;33;20071;-39
2021/03/12 04:30:00;;;;;;;6.37;1.87;;;-4.90;43.60;;;;;;4301429;33;20067;-37
2021/03/12 04:32:27;;;;;;;4.77;1.17;;;-4.70;43.30;;;;;;4289806;33;20165;-36
2021/03/12 04:34:53;;;;;;;4.73;1.40;;;-4.50;42.90;;;;;;4301965;33;20679;-35
2021/03/12 04:37:20;;;;;;;8.43;1.30;;;-4.30;42.50;;;;;;4301787;33;20109;-37
2021/03/12 04:39:47;;;;;;;2.90;1.10;;;-4.00;42.40;;;;;;4292087;33;20100;-35
2021/03/12 04:42:14;;;;;;;5.13;1.80;;;-3.80;42.30;;;;;;4304684;33;20058;-35
2021/03/12 04:44:41;;;;;;;2.77;1.03;;;-3.50;41.50;;;;;;4304702;33;20694;-36
2021/03/12 04:47:08;;;;;;;2.20;1.07;;;-3.30;40.50;;;;;;4316217;33;20074;-35
2021/03/12 04:49:34;;;;;;;2.83;1.10;;;-3.20;39.70;;;;;;4316263;33;20074;-36
2021/03/12 04:52:01;;;;;;;3.67;1.43;;;-3.20;38.80;;;;;;4304326;33;20114;-36
2021/03/12 04:54:28;;;;;;;3.43;1.30;;;-3.20;38.50;;;;;;4316201;33;20097;-37
2021/03/12 04:56:56;;;;;;;4.50;1.23;;;-3.20;38.10;;;;;;4316266;33;20585;-36
2021/03/12 04:59:23;;;;;;;3.37;1.30;;;-3.20;37.90;;;;;;4339053;32;20545;-37
2021/03/12 05:01:49;;;;;;;3.07;1.20;;;-3.00;37.60;;;;;;4376173;32;20073;-37
2021/03/12 05:04:16;;;;;;;3.13;1.60;;;-2.80;37.90;;;;;;4364190;32;20148;-42
2021/03/12 05:06:44;;;;;;;5.03;0.90;;;-2.70;37.40;;;;;;4363970;32;20545;-38
2021/03/12 05:09:14;;;;;;;2.67;0.97;;;-2.50;37.30;;;;;;4376170;32;20559;-39
2021/03/12 05:11:42;;;;;;;3.23;1.07;;;-2.50;36.20;;;;;;4364188;32;20072;-35
2021/03/12 05:14:14;;;;;;;3.13;1.00;;;-2.40;35.90;;;;;;4376333;32;20092;-36
2021/03/12 05:16:42;;;;;;;4.43;1.60;;;-2.40;35.50;;;;;;4376374;32;20104;-35
2021/03/12 05:19:09;;;;;;;5.33;1.30;;;-2.40;35.40;;;;;;4390361;32;20181;-38
2021/03/12 05:21:36;;;;;;;6.93;2.23;;;-2.40;35.30;;;;;;4376122;32;20579;-36
2021/03/12 05:24:03;;;;;;;4.43;1.17;;;-2.30;35.60;;;;;;4389949;32;20073;-39
2021/03/12 05:26:30;;;;;;;4.17;1.07;;;-2.20;35.50;;;;;;4363695;32;20091;-39
2021/03/12 05:28:57;;;;;;;3.70;1.03;;;-2.10;35.50;;;;;;4363515;32;20080;-36
2021/03/12 05:31:32;;;;;;;4.50;1.30;;;-2.00;35.40;;;;;;4363238;32;20603;-36
2021/03/12 05:33:59;;;;;;;2.63;1.03;;;-1.90;35.30;;;;;;4390334;32;20054;-36
2021/03/12 05:36:25;;;;;;;17.97;1.93;;;-1.80;34.90;;;;;;4363618;32;20462;-36
2021/03/12 05:38:52;;;;;;;4.17;1.30;;;-1.60;34.80;;;;;;4363434;32;20057;-37
2021/03/12 05:41:19;;;;;;;6.07;1.97;;;-1.40;35.00;;;;;;4363364;32;20159;-37
2021/03/12 05:43:46;;;;;;;10.80;2.57;;;-1.10;34.10;;;;;;4376480;32;20093;-38
2021/03/12 05:46:14;;;;;;;4.23;1.20;;;-0.90;33.30;;;;;;4376147;32;20081;-37
2021/03/12 05:48:42;;;;;;;3.40;1.03;;;-0.70;33.00;;;;;;4363685;32;20080;-36
2021/03/12 05:51:10;;;;;;;3.63;1.13;;;-0.50;32.90;;;;;;4363912;32;20147;-37
2021/03/12 05:53:37;;;;;;;4.33;1.43;;;-0.40;32.00;;;;;;4363340;32;20078;-39
2021/03/12 05:56:04;;;;;;;5.90;1.47;;;-0.30;31.40;;;;;;4375574;32;20138;-37
2021/03/12 05:58:31;;;;;;;5.63;1.13;;;-0.30;31.20;;;;;;4389958;32;20073;-37
2021/03/12 06:00:59;;;;;;;7.77;1.53;;;-0.20;31.20;;;;;;4375687;32;20193;-37
2021/03/12 06:03:25;;;;;;;2.43;1.00;;;0.00;30.90;;;;;;4375767;32;20131;-39
2021/03/12 06:05:52;;;;;;;3.07;1.30;;;0.20;30.90;;;;;;4363275;32;20142;-37
2021/03/12 06:08:19;;;;;;;4.97;1.20;;;0.50;30.50;;;;;;4363563;32;20058;-40
2021/03/12 06:10:45;;;;;;;4.83;1.40;;;0.80;30.90;;;;;;4386873;32;20066;-40
2021/03/12 06:13:12;;;;;;;3.30;1.30;;;1.00;30.00;;;;;;4374840;32;20169;-40
2021/03/12 06:15:43;;;;;;;3.93;1.07;;;1.00;29.40;;;;;;4359574;32;20182;-42
2021/03/12 06:18:26;;;;;;;9.73;1.80;;;1.00;29.60;;;;;;4371766;32;20061;-41
2021/03/12 06:20:55;;;;;;;2.10;1.03;;;1.00;29.50;;;;;;4347646;32;20071;-39
2021/03/12 06:23:39;;;;;;;2.50;0.90;;;1.00;29.60;;;;;;4372037;32;20096;-42
2021/03/12 06:26:06;;;;;;;2.00;0.80;;;1.00;29.60;;;;;;4371836;32;20081;-40
2021/03/12 06:28:32;;;;;;;5.60;1.13;;;1.00;29.60;;;;;;4372184;32;20070;-38
2021/03/12 06:30:59;;;;;;;9.53;1.27;;;1.10;29.70;;;;;;4371853;32;20062;-38
2021/03/12 06:33:30;;;;;;;8.80;1.33;;;1.40;30.00;;;;;;4359219;32;20066;-37
2021/03/12 06:35:58;;;;;;;18.37;1.60;;;1.70;29.90;;;;;;4372003;32;20565;-38
2021/03/12 06:38:25;;;;;;;14.57;2.23;;;1.90;29.60;;;;;;4371810;32;20061;-39
2021/03/12 06:40:52;;;;;;;22.27;2.23;;;2.20;29.40;;;;;;4329648;32;20071;-38
2021/03/12 06:43:20;;;;;;;13.13;1.80;;;2.40;29.00;;;;;;4329830;33;20079;-39
2021/03/12 06:45:50;;;;;;;28.47;4.17;;;2.70;28.60;;;;;;4359092;32;20105;-38
2021/03/12 06:48:31;;;;;;;4.57;1.30;;;3.00;28.10;;;;;;4372116;32;20135;-39
2021/03/12 06:51:01;;;;;;;21.90;2.23;;;3.20;27.90;;;;;;4371643;32;20502;-41
2021/03/12 06:53:34;;;;;;;18.73;1.87;;;3.50;27.70;;;;;;4362045;32;20079;-41
2021/03/12 06:56:06;;;;;;;16.10;2.30;;;3.70;27.60;;;;;;4356679;32;20065;-41
2021/03/12 06:58:33;;;;;;;7.23;1.40;;;3.90;27.20;;;;;;4356858;32;20082;-41
2021/03/12 07:01:00;;;;;;;29.10;3.13;;;3.90;26.50;;;;;;4344281;32;20076;-41
2021/03/12 07:03:32;;;;;;;5.17;1.70;;;3.80;26.20;;;;;;4356767;32;20118;-39
2021/03/12 07:06:07;;;;;;;15.07;0.90;;;3.70;26.50;;;;;;4344260;32;20058;-39
2021/03/12 07:08:45;;;;;;;;;;;3.50;26.40;;;;;;4359122;32;20062;-38
2021/03/12 07:11:28;;;;;;;4.33;1.43;;;3.30;26.80;;;;;;4359322;32;20464;-38
2021/03/12 07:13:56;;;;;;;12.77;1.30;;;3.10;26.70;;;;;;4358677;32;20070;-39
2021/03/12 07:16:24;;;;;;;3.77;0.70;;;2.90;26.90;;;;;;4359091;32;20086;-41
2021/03/12 07:18:52;;;;;;;34.20;2.97;;;2.90;26.90;;;;;;4362736;32;20065;-38
2021/03/12 07:21:26;;;;;;;10.90;0.80;;;2.80;27.00;;;;;;4371353;32;20191;-38
2021/03/12 07:23:57;;;;;;;6.32;1.30;;;2.70;27.20;;;;;;4371368;32;20066;-41
2021/03/12 07:26:24;;;;;;;14.47;1.57;;;2.70;27.20;;;;;;4359297;32;20062;-39
2021/03/12 07:28:59;;;;;;;1.83;0.73;;;2.70;27.30;;;;;;4371400;32;20066;-38
2021/03/12 07:31:36;;;;;;;8.55;1.27;;;2.70;27.40;;;;;;4357597;32;20066;-37
2021/03/12 07:34:13;;;;;;;6.97;1.17;;;2.70;27.90;;;;;;4374774;32;20084;-38
2021/03/12 07:36:48;;;;;;;7.97;1.43;;;2.70;27.30;;;;;;4385979;32;20074;-42
2021/03/12 07:39:31;;;;;;;5.70;0.90;;;2.80;27.40;;;;;;4386038;32;20165;-45
2021/03/12 07:41:58;;;;;;;11.40;2.80;;;3.00;27.70;;;;;;4373714;32;20547;-46
2021/03/12 07:44:24;;;;;;;3.27;0.90;;;3.30;27.60;;;;;;4373342;32;20482;-43
2021/03/12 07:46:52;;;;;;;13.73;1.90;;;3.50;27.50;;;;;;4373633;32;20157;-44
2021/03/12 07:49:30;;;;;;;7.40;1.40;;;3.80;27.40;;;;;;4373077;32;20065;-44
2021/03/12 07:51:57;;;;;;;43.90;4.90;;;4.00;27.00;;;;;;4381331;32;20113;-42
2021/03/12 07:54:36;;;;;;;6.43;1.23;;;4.20;27.00;;;;;;4371941;32;20077;-44
2021/03/12 07:57:03;;;;;;;7.57;1.00;;;4.40;26.70;;;;;;4373384;32;20070;-44
2021/03/12 07:59:48;;;;;;;4.23;0.90;;;4.50;26.60;;;;;;4372023;32;20094;-44
2021/03/12 08:02:16;;;;;;;6.78;1.40;;;4.70;26.50;;;;;;4372657;32;20088;-44
2021/03/12 08:04:43;;;;;;;4.77;1.10;;;4.70;26.10;;;;;;4373454;32;20066;-45
2021/03/12 08:07:19;;;;;;;6.93;2.33;;;4.70;26.10;;;;;;4373368;32;20131;-45
2021/03/12 08:09:53;;;;;;;17.00;1.13;;;4.70;26.70;;;;;;4372728;32;20549;-45
2021/03/12 08:12:37;;;;;;;48.40;3.97;;;4.70;26.30;;;;;;4373366;32;20490;-45
2021/03/12 08:15:14;;;;;;;26.10;6.10;;;4.80;26.30;;;;;;4373173;32;20070;-46
2021/03/12 08:17:41;;;;;;;13.70;3.87;;;5.10;26.00;;;;;;4372963;32;20069;-45
2021/03/12 08:20:36;;;;;;;14.60;2.20;;;5.30;25.50;;;;;;4373100;32;20149;-46
2021/03/12 08:23:03;;;;;;;6.43;1.10;;;5.60;25.20;;;;;;4371724;32;20502;-45
2021/03/12 08:25:36;;;;;;;6.73;1.77;;;6.00;25.00;;;;;;4372978;32;20180;-46
2021/03/12 08:28:06;;;;;;;7.20;1.30;;;6.20;24.50;;;;;;4372717;32;20059;-47
2021/03/12 08:30:35;;;;;;;4.83;0.90;;;6.30;24.20;;;;;;4384748;32;20520;-45
2021/03/12 08:33:21;;;;;;;20.10;2.73;;;6.50;24.20;;;;;;4402884;32;20141;-45
2021/03/12 08:35:49;;;;;;;2.83;0.70;;;6.50;24.10;;;;;;4392301;32;20088;-48
2021/03/12 08:38:25;;;;;;;6.20;0.70;;;6.60;24.20;;;;;;4402857;32;20450;-47
2021/03/12 08:41:01;;;;;;;12.60;1.83;;;6.70;24.00;;;;;;4402698;32;20525;-43
2021/03/12 08:43:28;;;;;;;15.93;1.70;;;6.70;23.80;;;;;;4405383;32;20153;-43
2021/03/12 08:45:56;;;;;;;32.10;2.70;;;6.70;24.00;;;;;;4405743;32;20054;-44
2021/03/12 08:48:34;;;;;;;28.40;2.57;;;6.70;23.90;;;;;;4405597;32;20084;-43
2021/03/12 08:51:05;;;;;;;20.30;2.00;;;6.80;23.80;;;;;;4405454;32;20547;-43
2021/03/12 08:53:38;;;;;;;14.43;1.30;;;7.00;23.80;;;;;;4405355;32;20061;-43
2021/03/12 08:56:07;;;;;;;6.23;0.80;;;7.10;23.30;;;;;;4405711;32;20068;-44
2021/03/12 08:58:35;;;;;;;11.50;2.10;;;7.20;23.10;;;;;;4405156;32;20541;-44
2021/03/12 09:01:20;;;;;;;6.40;0.80;;;7.30;22.60;;;;;;4405544;32;20076;-45
2021/03/12 09:03:51;;;;;;;7.53;0.90;;;7.40;23.10;;;;;;4372700;32;20142;-43
2021/03/12 09:06:23;;;;;;;23.37;2.03;;;7.60;23.20;;;;;;4360815;32;20057;-44
2021/03/12 09:08:50;;;;;;;7.77;1.20;;;7.80;23.30;;;;;;4372360;32;20105;-44
2021/03/12 09:11:20;;;;;;;16.80;1.10;;;8.00;23.00;;;;;;4373068;32;20159;-44
2021/03/12 09:13:47;;;;;;;22.10;1.53;;;8.20;22.60;;;;;;4360845;32;20147;-43
2021/03/12 09:16:19;;;;;;;12.20;1.20;;;8.30;22.80;;;;;;4360398;32;20062;-41
2021/03/12 09:18:45;;;;;;;26.20;1.57;;;8.40;22.60;;;;;;4360164;32;20508;-43
2021/03/12 09:21:18;;;;;;;27.50;2.20;;;8.60;22.60;;;;;;4360002;32;20163;-41
2021/03/12 09:23:55;;;;;;;9.90;1.00;;;8.70;22.40;;;;;;4342456;33;20075;-42
2021/03/12 09:26:29;;;;;;;14.30;1.10;;;8.90;22.10;;;;;;4330625;33;20679;-42
2021/03/12 09:28:58;;;;;;;23.10;1.37;;;9.00;21.90;;;;;;4342879;33;20090;-40
2021/03/12 09:31:36;;;;;;;11.97;1.00;;;9.00;21.80;;;;;;4330249;33;20170;-41
2021/03/12 09:34:04;;;;;;;11.90;1.10;;;9.00;21.80;;;;;;4342644;33;20166;-43
2021/03/12 09:36:43;;;;;;;20.77;1.67;;;8.90;21.80;;;;;;4312893;33;20475;-41
2021/03/12 09:39:23;;;;;;;11.97;1.33;;;8.80;21.80;;;;;;4312886;33;20197;-40
2021/03/12 09:42:03;;;;;;;10.00;1.17;;;8.70;22.00;;;;;;4334587;33;20230;-41
2021/03/12 09:44:31;;;;;;;23.20;1.40;;;8.70;22.20;;;;;;4301476;33;20074;-40
2021/03/12 09:46:58;;;;;;;13.07;1.00;;;8.70;22.40;;;;;;4313141;33;20078;-40
2021/03/12 09:49:33;;;;;;;9.90;1.00;;;8.80;22.40;;;;;;4297907;33;20547;-39
2021/03/12 09:52:06;;;;;;;8.52;0.90;;;8.80;22.30;;;;;;4287491;33;20068;-39
2021/03/12 09:54:33;;;;;;;9.70;1.40;;;8.90;22.10;;;;;;4309647;33;20160;-39
2021/03/12 09:57:00;;;;;;;8.17;0.80;;;8.90;22.20;;;;;;4310264;33;20091;-41
2021/03/12 09:59:31;;;;;;;8.53;2.10;;;9.00;22.00;;;;;;4298578;33;20052;-42
2021/03/12 10:02:05;;;;;;;14.10;1.10;;;9.00;21.90;;;;;;4298714;33;20075;-41
2021/03/12 10:04:37;;;;;;;12.57;0.90;;;9.10;22.30;;;;;;4298786;33;20075;-41
2021/03/12 10:07:16;;;;;;;4.90;0.60;;;9.00;22.10;;;;;;4298236;33;20068;-42
2021/03/12 10:09:45;;;;;;;5.00;0.77;;;8.90;22.00;;;;;;4297919;33;20559;-44
2021/03/12 10:12:19;;;;;;;3.77;0.70;;;8.70;22.20;;;;;;4297698;33;20147;-40
2021/03/12 10:14:50;;;;;;;5.22;0.68;;;8.60;22.40;;;;;;4303541;33;20075;-41
2021/03/12 10:17:23;;;;;;;3.70;0.87;;;8.50;22.30;;;;;;4327307;33;20161;-41
2021/03/12 10:20:06;;;;;;;10.33;0.77;;;8.50;22.30;;;;;;4330718;33;20523;-41
2021/03/12 10:22:42;;;;;;;9.80;0.80;;;8.70;22.40;;;;;;4317746;33;20134;-41
2021/03/12 10:25:23;;;;;;;2.80;0.80;;;8.80;22.10;;;;;;4330679;33;20086;-39
2021/03/12 10:27:58;;;;;;;3.50;0.60;;;8.90;22.10;;;;;;4354445;32;20085;-40
2021/03/12 10:30:36;;;;;;;6.60;0.70;;;9.10;21.90;;;;;;4358922;32;20108;-40
2021/03/12 10:33:11;;;;;;;5.37;0.70;;;9.40;22.00;;;;;;4359381;32;20087;-40
2021/03/12 10:35:43;;;;;;;3.75;1.50;;;9.60;22.00;;;;;;4371789;32;20082;-40
2021/03/12 10:38:22;;;;;;;2.03;0.53;;;9.80;21.80;;;;;;4371545;32;20233;-40
2021/03/12 10:40:54;;;;;;;4.17;0.63;;;10.00;21.40;;;;;;4347034;32;20618;-42
2021/03/12 10:43:24;;;;;;;6.87;1.37;;;10.10;21.20;;;;;;4371657;32;20151;-39
2021/03/12 10:45:53;;;;;;;6.67;0.90;;;10.20;21.10;;;;;;4359048;32;20546;-39
2021/03/12 10:48:28;;;;;;;5.73;0.90;;;10.20;21.20;;;;;;4359017;32;20070;-39
2021/03/12 10:51:03;;;;;;;10.02;2.00;;;10.20;21.40;;;;;;4359299;32;20142;-41
2021/03/12 10:53:31;;;;;;;9.77;1.13;;;10.30;21.60;;;;;;4371384;32;20568;-40
2021/03/12 10:56:05;;;;;;;1.70;0.70;;;10.50;21.70;;;;;;4326658;33;20193;-40
2021/03/12 10:58:33;;;;;;;6.53;1.00;;;10.60;21.30;;;;;;4341492;33;20117;-39
2021/03/12 11:01:07;;;;;;;8.50;1.20;;;10.70;21.20;;;;;;4328990;33;20127;-40
2021/03/12 11:03:34;;;;;;;7.37;1.02;;;10.80;21.00;;;;;;4341709;33;20464;-40
2021/03/12 11:06:01;;;;;;;6.65;1.00;;;10.90;21.00;;;;;;4341100;33;20086;-39
2021/03/12 11:08:28;;;;;;;4.83;0.97;;;10.90;21.40;;;;;;4326297;33;20077;-39
2021/03/12 11:10:59;;;;;;;4.00;1.40;;;10.90;20.90;;;;;;4326288;33;20086;-39
2021/03/12 11:13:25;;;;;;;6.00;0.97;;;10.90;21.00;;;;;;4297303;33;20067;-39
2021/03/12 11:15:52;;;;;;;6.57;1.20;;;10.80;20.90;;;;;;4297340;33;20605;-40
2021/03/12 11:18:18;;;;;;;5.93;1.10;;;10.60;20.80;;;;;;4297116;33;20142;-40
2021/03/12 11:20:45;;;;;;;13.83;3.20;;;10.40;21.00;;;;;;4285220;33;20071;-39
2021/03/12 11:23:12;;;;;;;7.43;1.42;;;10.30;21.20;;;;;;4284850;33;20532;-40
2021/03/12 11:25:39;;;;;;;4.03;1.10;;;10.10;21.60;;;;;;4285035;33;20071;-40
2021/03/12 11:28:06;;;;;;;7.30;1.50;;;10.10;21.80;;;;;;4299524;33;20072;-39
2021/03/12 11:30:32;;;;;;;5.20;1.37;;;10.10;21.90;;;;;;4317510;33;20086;-40
2021/03/12 11:32:59;;;;;;;7.27;1.57;;;10.10;21.70;;;;;;4314272;33;20094;-39
2021/03/12 11:35:26;;;;;;;5.40;2.93;;;10.20;22.70;;;;;;4326652;33;20078;-40
2021/03/12 11:37:52;;;;;;;3.87;1.27;;;10.10;22.10;;;;;;4326382;33;20082;-40
2021/03/12 11:40:19;;;;;;;2.03;1.23;;;10.10;21.90;;;;;;4351623;32;20077;-39
2021/03/12 11:42:45;;;;;;;4.95;1.20;;;10.00;22.00;;;;;;4355578;32;20073;-41
2021/03/12 11:45:15;;;;;;;4.17;1.70;;;10.00;22.20;;;;;;4343753;32;20061;-39
2021/03/12 11:47:42;;;;;;;4.57;1.27;;;10.00;22.10;;;;;;4343439;32;20514;-40
2021/03/12 11:50:14;;;;;;;4.67;1.30;;;10.00;22.20;;;;;;4347741;32;20626;-41
2021/03/12 11:52:41;;;;;;;4.83;1.63;;;10.00;22.40;;;;;;4371651;32;20089;-39
2021/03/12 11:55:08;;;;;;;4.00;1.53;;;10.00;22.40;;;;;;4359447;32;20066;-41
2021/03/12 11:57:36;;;;;;;8.07;1.60;;;10.00;22.50;;;;;;4371858;32;20069;-40
2021/03/12 12:00:10;;;;;;;3.63;1.13;;;10.00;22.00;;;;;;4343450;32;20064;-39
2021/03/12 12:02:37;;;;;;;3.80;0.93;;;9.90;22.10;;;;;;4355738;32;20466;-40
2021/03/12 12:05:05;;;;;;;2.33;0.87;;;9.80;22.20;;;;;;4343187;32;20094;-40
2021/03/12 12:07:32;;;;;;;2.67;1.07;;;9.90;22.40;;;;;;4331473;32;20077;-41
2021/03/12 12:10:00;;;;;;;5.20;1.25;;;9.90;22.40;;;;;;4332757;33;20132;-40
2021/03/12 12:12:26;;;;;;;4.73;0.90;;;9.90;22.40;;;;;;4316280;33;20082;-40
2021/03/12 12:14:53;;;;;;;2.73;1.10;;;9.90;22.30;;;;;;4341077;33;20074;-41
2021/03/12 12:17:20;;;;;;;3.70;0.90;;;9.80;22.10;;;;;;4342313;32;20055;-38
2021/03/12 12:19:46;;;;;;;4.33;0.87;;;9.70;22.40;;;;;;4331270;33;20100;-39
2021/03/12 12:22:13;;;;;;;7.77;0.87;;;9.70;22.20;;;;;;4343879;33;20148;-40
2021/03/12 12:24:40;;;;;;;5.63;1.00;;;9.60;22.40;;;;;;4331182;33;20573;-40
2021/03/12 12:27:08;;;;;;;2.03;1.00;;;9.50;22.30;;;;;;4343990;33;20110;-39
2021/03/12 12:29:34;;;;;;;3.33;1.10;;;9.40;22.50;;;;;;4331428;33;20070;-39
2021/03/12 12:32:01;;;;;;;3.73;1.13;;;9.30;22.60;;;;;;4358142;32;20086;-39
2021/03/12 12:34:28;;;;;;;1.83;0.77;;;9.20;22.70;;;;;;4345878;32;20077;-38
2021/03/12 12:36:55;;;;;;;2.40;0.90;;;9.00;22.80;;;;;;4351288;32;20137;-39
2021/03/12 12:39:22;;;;;;;3.80;1.57;;;9.00;22.90;;;;;;4361688;32;20738;-38
2021/03/12 12:41:49;;;;;;;4.60;1.30;;;8.80;22.90;;;;;;4374296;32;20095;-37
2021/03/12 12:44:16;;;;;;;6.30;1.10;;;8.70;22.90;;;;;;4361622;32;20514;-38
2021/03/12 12:46:43;;;;;;;3.53;1.43;;;8.70;23.30;;;;;;4345884;32;20508;-37
2021/03/12 12:49:10;;;;;;;7.73;1.40;;;8.60;23.50;;;;;;4358256;32;20074;-39
2021/03/12 12:51:36;;;;;;;3.53;0.90;;;8.70;23.50;;;;;;4333425;32;20085;-38
2021/03/12 12:54:04;;;;;;;3.80;1.40;;;8.70;23.40;;;;;;4358417;32;20066;-39
2021/03/12 12:56:30;;;;;;;6.80;1.27;;;8.80;23.50;;;;;;4357795;32;20101;-39
2021/03/12 12:58:58;;;;;;;3.53;1.70;;;8.80;23.50;;;;;;4333194;32;20562;-38
2021/03/12 13:01:25;;;;;;;6.17;1.30;;;8.80;23.40;;;;;;4358322;32;20070;-38